Time;durP1;ratioP1;P1;durP2;ratioP2;P2;SDS_P1;SDS_P2;PMS_P1;PMS_P2;Temp;Humidity;BMP_temperature;BMP_pressure;BME280_temperature;BME280_humidity;BME280_pressure;Samples;Min_cycle;Max_cycle;Signal;HPM_P1;HPM_P2
2022/10/25 00:01:21;;;;;;;;;1.25;0.00;;;;;18.53;70.07;-19703.41;4978022;28;45305;-72
2022/10/25 00:03:47;;;;;;;;;1.00;0.00;;;;;18.48;70.25;-19702.22;4992718;28;45400;-73
2022/10/25 00:06:14;;;;;;;;;0.00;0.00;;;;;18.53;70.34;-19703.56;4994233;28;45361;-80
2022/10/25 00:08:40;;;;;;;;;2.33;0.00;;;;;18.55;70.57;-19703.97;4995474;27;45504;-80
2022/10/25 00:11:09;;;;;;;;;1.00;1.00;;;;;18.53;70.64;-19703.41;4995363;27;45397;-80
2022/10/25 00:13:35;;;;;;;;;0.00;0.00;;;;;18.38;70.46;-19699.41;4995328;27;45277;-80
2022/10/25 00:16:00;;;;;;;;;0.00;0.00;;;;;18.46;71.03;-19701.69;4977677;28;45429;-80
2022/10/25 00:18:26;;;;;;;;;0.00;0.00;;;;;18.41;70.44;-19700.34;4994970;27;45563;-79
2022/10/25 00:20:52;;;;;;;;;1.00;0.00;;;;;18.50;70.28;-19702.75;4994315;27;45423;-80
2022/10/25 00:23:18;;;;;;;;;1.00;0.25;;;;;18.46;70.50;-19701.56;5062769;28;45519;-80
2022/10/25 00:25:44;;;;;;;;;0.00;0.00;;;;;18.52;70.41;-19703.16;4994726;27;45577;-80
2022/10/25 00:28:09;;;;;;;;;0.75;0.75;;;;;18.48;70.29;-19702.09;4995061;28;45477;-80
2022/10/25 00:30:35;;;;;;;;;0.00;0.00;;;;;18.55;70.29;-19704.09;4995039;27;45352;-80
2022/10/25 00:33:00;;;;;;;;;0.75;0.00;;;;;18.53;70.61;-19703.41;4995454;27;45259;-80
2022/10/25 00:35:26;;;;;;;;;1.00;0.00;;;;;18.54;70.72;-19703.69;4994580;27;45386;-80
2022/10/25 00:37:51;;;;;;;;;0.00;0.00;;;;;18.53;70.12;-19703.41;4994062;27;45420;-79
2022/10/25 00:40:17;;;;;;;;;0.00;0.00;;;;;18.52;70.09;-19703.28;4977217;28;45458;-79
2022/10/25 00:42:43;;;;;;;;;2.00;1.00;;;;;18.53;70.45;-19703.41;4994061;27;45783;-79
2022/10/25 00:45:22;;;;;;;;;0.00;0.00;;;;;18.52;70.62;-19703.28;4994982;27;45371;-80
2022/10/25 00:47:56;;;;;;;;;0.50;0.00;;;;;18.52;70.88;-19703.16;4994629;27;45507;-79
2022/10/25 00:50:28;;;;;;;;;0.50;0.00;;;;;18.52;70.78;-19703.28;4991858;27;45449;-79
2022/10/25 00:52:57;;;;;;;;;0.00;0.00;;;;;18.50;70.64;-19702.63;4973104;27;45637;-80
2022/10/25 00:55:26;;;;;;;;;0.00;0.00;;;;;18.52;70.60;-19703.16;4989144;27;45468;-80
2022/10/25 00:57:58;;;;;;;;;3.00;0.00;;;;;18.48;70.77;-19702.09;4987360;27;45539;-80
2022/10/25 01:00:24;;;;;;;;;0.00;0.00;;;;;18.40;70.79;-19700.09;5066529;27;45437;-79
2022/10/25 01:02:50;;;;;;;;;0.00;0.00;;;;;18.42;70.37;-19700.63;4982252;28;45449;-80
2022/10/25 01:05:16;;;;;;;;;2.00;1.00;;;;;18.47;70.58;-19701.97;4994510;28;45975;-80
2022/10/25 01:07:42;;;;;;;;;1.25;0.00;;;;;17.92;70.60;-19687.66;4989252;27;45393;-79
2022/10/25 01:10:08;;;;;;;;;0.25;0.25;;;;;18.50;70.80;-19702.63;4975170;28;45469;-80
2022/10/25 01:12:34;;;;;;;;;1.00;0.00;;;;;18.50;71.10;-19702.63;4975776;27;45482;-79
2022/10/25 01:15:01;;;;;;;;;0.00;0.00;;;;;18.48;71.25;-19702.09;4962643;28;46740;-80
2022/10/25 01:17:29;;;;;;;;;0.67;0.67;;;;;18.45;71.08;-19701.28;4989442;27;45475;-80
2022/10/25 01:20:13;;;;;;;;;1.75;0.00;;;;;18.46;71.32;-19701.56;4994371;27;45733;-80
2022/10/25 01:22:51;;;;;;;;;1.00;1.00;;;;;18.47;71.46;-19701.81;4994381;27;45454;-80
2022/10/25 01:25:28;;;;;;;;;2.00;0.00;;;;;18.49;71.15;-19702.34;4985485;28;46437;-80
2022/10/25 01:28:25;;;;;;;;;1.67;0.00;;;;;18.35;70.77;-19698.75;4957166;28;45757;-80
2022/10/25 01:30:57;;;;;;;;;0.00;0.00;;;;;18.50;70.97;-19702.63;4994330;27;45290;-80
2022/10/25 01:33:43;;;;;;;;;0.00;0.00;;;;;18.50;71.06;-19702.63;4994217;27;45523;-80
2022/10/25 01:36:32;;;;;;;;;1.00;0.00;;;;;18.43;71.07;-19700.75;4976397;28;47246;-80
2022/10/25 01:39:03;;;;;;;;;1.00;0.00;;;;;18.46;71.07;-19701.69;4976948;28;45365;-80
2022/10/25 01:41:52;;;;;;;;;2.00;0.33;;;;;18.46;70.85;-19701.56;4994001;27;45306;-80
2022/10/25 01:44:31;;;;;;;;;1.25;0.25;;;;;18.46;70.83;-19701.69;4994351;28;45347;-80
2022/10/25 01:46:59;;;;;;;;;2.00;0.33;;;;;18.38;71.19;-19699.56;4984719;28;46305;-80
2022/10/25 01:49:44;;;;;;;;;0.00;0.00;;;;;18.45;70.92;-19701.28;4976256;28;45694;-80
2022/10/25 01:52:09;;;;;;;;;0.67;0.67;;;;;18.43;70.87;-19700.75;4980703;27;45393;-79
2022/10/25 01:54:35;;;;;;;;;0.00;0.00;;;;;18.44;70.45;-19701.03;4994326;27;45302;-80
2022/10/25 01:57:32;;;;;;;;;0.25;0.25;;;;;18.44;70.70;-19701.03;4993467;27;45334;-80
2022/10/25 02:00:06;;;;;;;;;0.00;0.00;;;;;18.38;70.52;-19699.41;5033828;28;45545;-80
2022/10/25 02:02:41;;;;;;;;;1.00;0.00;;;;;18.41;70.13;-19700.22;5035944;28;45440;-80
2022/10/25 02:05:13;;;;;;;;;0.50;0.00;;;;;18.30;70.41;-19697.41;5038055;28;45580;-80
2022/10/25 02:08:03;;;;;;;;;1.33;0.00;;;;;18.28;70.42;-19697.00;5037614;28;46335;-80
2022/10/25 02:10:37;;;;;;;;;1.00;0.00;;;;;18.38;69.91;-19699.41;5037546;28;45500;-80
2022/10/25 02:13:32;;;;;;;;;3.00;0.00;;;;;18.38;69.56;-19699.41;5037782;28;45476;-80
2022/10/25 02:16:26;;;;;;;;;0.50;0.00;;;;;18.31;69.46;-19697.69;5037803;28;45309;-80
2022/10/25 02:19:00;;;;;;;;;0.00;0.00;;;;;18.39;69.81;-19699.69;5033357;28;45476;-80
2022/10/25 02:21:28;;;;;;;;;3.50;0.00;;;;;18.26;69.68;-19696.47;5020688;28;45326;-80
2022/10/25 02:23:57;;;;;;;;;1.67;0.00;;;;;18.27;70.07;-19696.59;5037342;28;45444;-80
2022/10/25 02:26:25;;;;;;;;;0.00;0.00;;;;;18.17;69.52;-19693.94;5037570;28;45449;-80
2022/10/25 02:28:52;;;;;;;;;1.75;0.00;;;;;18.34;69.41;-19698.47;5020733;28;45384;-80
2022/10/25 02:31:21;;;;;;;;;0.00;0.00;;;;;18.31;69.86;-19697.81;5037125;28;45417;-80
2022/10/25 02:33:47;;;;;;;;;0.33;0.00;;;;;18.31;69.38;-19697.81;5037307;28;45389;-80
2022/10/25 02:36:20;;;;;;;;;0.33;0.33;;;;;18.32;69.59;-19697.94;5024969;27;45390;-80
2022/10/25 02:38:49;;;;;;;;;2.00;0.00;;;;;18.09;69.92;-19691.94;4986453;28;48251;-80
2022/10/25 02:41:15;;;;;;;;;0.00;0.00;;;;;18.31;69.94;-19697.81;4996245;27;45425;-80
2022/10/25 02:43:41;;;;;;;;;2.75;0.00;;;;;18.00;69.65;-19689.53;4996504;27;45416;-80
2022/10/25 02:46:14;;;;;;;;;1.00;0.00;;;;;18.35;69.80;-19698.88;4996456;27;45506;-80
2022/10/25 02:48:40;;;;;;;;;0.00;0.00;;;;;18.28;69.73;-19696.88;4996579;27;45327;-80
2022/10/25 02:51:07;;;;;;;;;0.00;0.00;;;;;18.23;70.17;-19695.53;4994823;27;45333;-80
2022/10/25 02:53:33;;;;;;;;;1.00;0.00;;;;;18.37;70.32;-19699.28;4995463;27;45432;-80
2022/10/25 02:56:03;;;;;;;;;2.33;0.00;;;;;18.41;70.20;-19700.22;4991661;28;45489;-80
2022/10/25 02:58:31;;;;;;;;;0.75;0.00;;;;;18.18;70.11;-19694.34;4995634;27;46826;-80
2022/10/25 03:00:57;;;;;;;;;1.00;0.00;;;;;18.42;70.22;-19700.47;4988552;27;45496;-80
2022/10/25 03:03:23;;;;;;;;;0.00;0.00;;;;;18.43;69.94;-19700.88;4976656;27;45458;-80
2022/10/25 03:05:49;;;;;;;;;1.00;0.00;;;;;18.07;69.76;-19691.53;4982363;27;45428;-73
2022/10/25 03:08:14;;;;;;;;;0.00;0.00;;;;;18.46;70.00;-19701.69;4995908;27;45408;-73
2022/10/25 03:10:40;;;;;;;;;0.50;0.00;;;;;18.51;69.89;-19702.88;4995034;27;45400;-73
2022/10/25 03:13:05;;;;;;;;;0.00;0.00;;;;;18.54;69.21;-19703.81;4977972;28;45432;-73
2022/10/25 03:15:31;;;;;;;;;0.00;0.00;;;;;18.60;69.33;-19705.16;4978391;27;45433;-73
2022/10/25 03:17:57;;;;;;;;;0.00;0.00;;;;;18.61;69.01;-19705.56;4996009;27;45611;-73
2022/10/25 03:20:22;;;;;;;;;0.33;0.33;;;;;18.60;69.03;-19705.16;4995712;27;45359;-73
2022/10/25 03:22:48;;;;;;;;;0.00;0.00;;;;;18.01;69.17;-19689.94;4995951;27;45336;-73
2022/10/25 03:25:13;;;;;;;;;2.33;0.00;;;;;18.66;69.04;-19706.75;4996195;27;45290;-73
2022/10/25 03:27:39;;;;;;;;;0.00;0.00;;;;;18.56;68.32;-19704.22;4994658;27;45295;-73
2022/10/25 03:30:05;;;;;;;;;0.00;0.00;;;;;18.73;68.87;-19708.63;4995734;27;45310;-73
2022/10/25 03:32:31;;;;;;;;;1.00;0.00;;;;;18.73;68.84;-19708.63;4995961;27;45351;-73
2022/10/25 03:34:56;;;;;;;;;0.00;0.00;;;;;18.68;68.25;-19707.44;4978587;28;45309;-73
2022/10/25 03:37:22;;;;;;;;;0.75;0.00;;;;;18.73;68.91;-19708.78;4994418;27;47101;-73
2022/10/25 03:39:47;;;;;;;;;0.00;0.00;;;;;18.73;68.94;-19708.78;4978105;28;45308;-73
2022/10/25 03:42:12;;;;;;;;;1.00;0.00;;;;;18.75;68.87;-19709.31;4995568;27;45388;-72
2022/10/25 03:44:38;;;;;;;;;3.00;0.00;;;;;18.66;68.70;-19706.91;4993809;27;45508;-73
2022/10/25 03:47:03;;;;;;;;;0.00;0.00;;;;;18.59;69.28;-19704.88;4995608;27;46047;-73
2022/10/25 03:49:29;;;;;;;;;0.00;0.00;;;;;18.54;69.37;-19703.81;4995579;27;45399;-73
2022/10/25 03:51:54;;;;;;;;;0.00;0.00;;;;;18.69;69.00;-19707.56;4978259;28;45525;-73
2022/10/25 03:54:20;;;;;;;;;0.00;0.00;;;;;18.68;69.20;-19707.44;4977987;28;45508;-73
2022/10/25 03:56:45;;;;;;;;;0.67;0.00;;;;;18.63;69.57;-19705.97;4995323;27;45471;-73
2022/10/25 03:59:11;;;;;;;;;0.00;0.00;;;;;18.72;69.43;-19708.50;4988400;27;45355;-73
2022/10/25 04:01:37;;;;;;;;;0.00;0.00;;;;;18.59;69.56;-19705.03;4969426;28;45473;-73
2022/10/25 04:04:02;;;;;;;;;0.25;0.25;;;;;18.60;69.16;-19705.28;4976317;27;45346;-74
2022/10/25 04:06:28;;;;;;;;;0.25;0.00;;;;;18.78;68.99;-19709.97;4986563;28;45362;-73
2022/10/25 04:08:53;;;;;;;;;1.50;0.00;;;;;18.77;68.54;-19709.84;4961134;27;45378;-73
2022/10/25 04:11:18;;;;;;;;;0.00;0.00;;;;;18.80;68.42;-19710.38;4994346;28;45456;-73
2022/10/25 04:13:44;;;;;;;;;0.00;0.00;;;;;18.76;68.65;-19709.56;4995511;27;45308;-73
2022/10/25 04:16:09;;;;;;;;;2.00;0.00;;;;;18.83;68.14;-19711.31;4993735;28;48518;-73
2022/10/25 04:18:35;;;;;;;;;1.00;0.00;;;;;18.88;67.96;-19712.50;4994517;27;45544;-73
2022/10/25 04:21:00;;;;;;;;;0.00;0.00;;;;;18.85;68.36;-19711.84;4995266;27;46567;-73
2022/10/25 04:23:26;;;;;;;;;0.00;0.00;;;;;18.51;68.18;-19702.88;4994421;28;45367;-73
2022/10/25 04:25:55;;;;;;;;;0.00;0.00;;;;;18.85;68.01;-19711.84;4993864;27;46129;-73
2022/10/25 04:28:24;;;;;;;;;0.00;0.00;;;;;18.89;68.02;-19712.91;4968945;28;45362;-72
2022/10/25 04:30:50;;;;;;;;;0.00;0.00;;;;;18.87;68.00;-19712.25;4977028;27;45283;-73
2022/10/25 04:33:16;;;;;;;;;3.50;0.00;;;;;18.88;68.18;-19712.66;4994179;27;45586;-73
2022/10/25 04:35:41;;;;;;;;;0.00;0.00;;;;;18.69;68.16;-19707.69;4994044;27;45348;-72
2022/10/25 04:38:06;;;;;;;;;0.00;0.00;;;;;18.86;68.38;-19711.97;4994849;27;45286;-73
2022/10/25 04:40:32;;;;;;;;;0.00;0.00;;;;;18.83;68.21;-19711.31;4995108;27;45377;-73
2022/10/25 04:43:01;;;;;;;;;1.00;1.00;;;;;18.81;67.97;-19710.66;4994942;27;45564;-73
2022/10/25 04:45:29;;;;;;;;;0.00;0.00;;;;;18.70;68.25;-19707.84;4993536;28;46174;-73
2022/10/25 04:47:55;;;;;;;;;0.00;0.00;;;;;18.80;68.47;-19710.50;4994733;27;45436;-73
2022/10/25 04:50:20;;;;;;;;;0.00;0.00;;;;;18.69;68.06;-19707.56;4995080;27;45509;-73
2022/10/25 04:52:46;;;;;;;;;2.00;0.00;;;;;18.70;68.70;-19707.97;4994456;27;45468;-73
2022/10/25 04:55:11;;;;;;;;;0.00;0.00;;;;;18.82;68.30;-19710.91;4994610;27;46607;-73
2022/10/25 04:57:37;;;;;;;;;0.33;0.00;;;;;18.78;68.93;-19709.97;4993101;27;45455;-73
2022/10/25 05:00:03;;;;;;;;;0.00;0.00;;;;;18.64;68.84;-19706.22;4995970;27;45384;-73
2022/10/25 05:02:28;;;;;;;;;0.00;0.00;;;;;18.76;69.37;-19709.56;4957975;28;45355;-73
2022/10/25 05:04:53;;;;;;;;;0.33;0.33;;;;;18.75;69.00;-19709.31;4987380;27;45566;-73
2022/10/25 05:07:19;;;;;;;;;0.00;0.00;;;;;18.72;69.67;-19708.50;4990552;28;45396;-73
2022/10/25 05:09:45;;;;;;;;;0.67;0.67;;;;;18.69;69.70;-19707.56;4984139;28;45451;-73
2022/10/25 05:12:10;;;;;;;;;4.00;1.00;;;;;18.63;70.15;-19705.97;4994318;27;45371;-73
2022/10/25 05:14:35;;;;;;;;;0.33;0.33;;;;;18.20;70.58;-19694.75;4994558;27;46912;-73
2022/10/25 05:17:01;;;;;;;;;1.33;1.00;;;;;18.54;70.77;-19703.81;4976808;28;45441;-73
2022/10/25 05:19:26;;;;;;;;;3.00;1.00;;;;;18.52;70.94;-19703.28;4960938;28;45377;-73
2022/10/25 05:21:51;;;;;;;;;1.00;1.00;;;;;18.51;71.19;-19702.88;4994968;28;45354;-73
2022/10/25 05:24:17;;;;;;;;;1.00;1.00;;;;;18.50;71.14;-19702.63;4976414;28;46059;-73
2022/10/25 05:26:42;;;;;;;;;1.33;0.67;;;;;18.49;71.28;-19702.47;4993465;28;45369;-73
2022/10/25 05:29:10;;;;;;;;;1.00;1.00;;;;;18.49;70.97;-19702.34;4994192;27;45402;-73
2022/10/25 05:31:37;;;;;;;;;1.00;1.00;;;;;18.43;71.18;-19700.88;4994931;27;45405;-73
2022/10/25 05:34:02;;;;;;;;;0.00;0.00;;;;;18.34;71.09;-19698.63;4994090;27;46154;-73
2022/10/25 05:36:28;;;;;;;;;6.00;1.00;;;;;18.40;71.15;-19700.09;4987821;28;45205;-73
2022/10/25 05:38:54;;;;;;;;;4.00;1.67;;;;;18.31;71.40;-19697.81;4986722;27;45424;-74
2022/10/25 05:41:20;;;;;;;;;2.00;1.00;;;;;18.26;71.84;-19696.47;4994110;27;45746;-73
2022/10/25 05:43:46;;;;;;;;;1.00;1.00;;;;;18.34;71.89;-19698.47;4993060;27;46201;-73
2022/10/25 05:46:15;;;;;;;;;2.33;2.00;;;;;18.13;71.33;-19693.00;4992158;27;45539;-73
2022/10/25 05:48:41;;;;;;;;;2.00;1.00;;;;;18.33;71.82;-19698.22;5008083;27;45993;-72
2022/10/25 05:51:20;;;;;;;;;2.00;1.00;;;;;17.92;72.07;-19687.50;4995728;27;45488;-72
2022/10/25 05:53:48;;;;;;;;;1.00;1.00;;;;;18.33;72.07;-19698.22;4969707;28;46277;-72
2022/10/25 05:56:15;;;;;;;;;1.67;1.00;;;;;18.28;71.59;-19696.88;4974199;28;45453;-72
2022/10/25 05:58:41;;;;;;;;;2.33;1.00;;;;;18.33;72.07;-19698.34;4970209;28;45459;-72
2022/10/25 06:01:09;;;;;;;;;2.67;1.00;;;;;18.33;71.56;-19698.34;4993388;28;45399;-72
2022/10/25 06:03:35;;;;;;;;;3.00;1.00;;;;;18.26;71.87;-19696.34;4966197;28;48558;-72
2022/10/25 06:06:02;;;;;;;;;4.33;2.00;;;;;18.27;72.43;-19696.75;4985209;28;45491;-72
2022/10/25 06:08:29;;;;;;;;;3.00;1.67;;;;;18.12;72.84;-19692.88;5000833;28;45418;-72
2022/10/25 06:10:54;;;;;;;;;1.33;0.67;;;;;18.22;72.86;-19695.28;4980871;27;45413;-72
2022/10/25 06:13:22;;;;;;;;;2.00;1.00;;;;;18.12;72.90;-19692.72;4975220;28;46154;-72
2022/10/25 06:15:47;;;;;;;;;1.00;1.00;;;;;17.93;72.72;-19687.91;5054202;27;45579;-72
2022/10/25 06:18:12;;;;;;;;;1.00;0.67;;;;;18.19;73.34;-19694.59;4963972;28;45433;-72
2022/10/25 06:20:38;;;;;;;;;2.67;1.00;;;;;18.17;72.97;-19694.06;5057488;27;45582;-72
2022/10/25 06:23:03;;;;;;;;;2.00;0.33;;;;;18.17;73.28;-19694.06;4988333;27;46280;-72
2022/10/25 06:25:28;;;;;;;;;1.00;1.00;;;;;18.07;73.69;-19691.41;4994170;27;45814;-72
2022/10/25 06:27:54;;;;;;;;;1.67;1.67;;;;;18.10;73.40;-19692.19;4949177;28;45339;-72
2022/10/25 06:30:19;;;;;;;;;2.00;2.00;;;;;18.25;73.39;-19696.06;4976593;28;45523;-72
2022/10/25 06:32:45;;;;;;;;;2.00;1.00;;;;;18.27;73.17;-19696.75;5010163;27;46200;-72
2022/10/25 06:35:10;;;;;;;;;0.00;0.00;;;;;18.34;73.17;-19698.47;5008515;27;45429;-72
2022/10/25 06:37:36;;;;;;;;;3.00;1.00;;;;;18.32;72.82;-19698.06;4995058;27;45625;-72
2022/10/25 06:40:01;;;;;;;;;1.00;1.00;;;;;18.29;72.99;-19697.28;4984775;28;45432;-72
2022/10/25 06:42:26;;;;;;;;;2.00;2.00;;;;;18.42;72.61;-19700.63;4981833;27;46043;-72
2022/10/25 06:44:52;;;;;;;;;0.67;0.67;;;;;18.47;72.05;-19701.81;4976245;27;45500;-72
2022/10/25 06:47:17;;;;;;;;;7.67;4.33;;;;;18.49;72.37;-19702.34;4982280;28;45371;-73
2022/10/25 06:49:42;;;;;;;;;1.00;1.00;;;;;18.34;70.68;-19698.47;4991695;27;45603;-73
2022/10/25 06:52:08;;;;;;;;;1.00;1.00;;;;;18.50;70.73;-19702.75;5022508;27;46458;-72
2022/10/25 06:54:34;;;;;;;;;2.00;0.00;;;;;18.32;70.60;-19698.06;5031269;27;45400;-72
2022/10/25 06:57:00;;;;;;;;;1.00;1.00;;;;;18.50;70.94;-19702.63;4986995;27;45425;-71
2022/10/25 06:59:25;;;;;;;;;1.00;1.00;;;;;18.50;71.59;-19702.63;4985967;28;45397;-72
2022/10/25 07:01:51;;;;;;;;;2.00;2.00;;;;;18.48;71.54;-19702.09;5039243;27;46237;-72
2022/10/25 07:04:16;;;;;;;;;3.00;1.33;;;;;18.49;71.97;-19702.47;4979686;27;45432;-81
2022/10/25 07:06:41;;;;;;;;;1.00;1.00;;;;;18.57;71.87;-19704.50;5034035;27;45440;-80
2022/10/25 07:09:11;;;;;;;;;0.33;0.33;;;;;18.59;72.04;-19704.88;5005775;27;45503;-80
2022/10/25 07:11:37;;;;;;;;;1.00;1.00;;;;;18.50;72.08;-19702.63;4977986;28;46357;-80
2022/10/25 07:14:03;;;;;;;;;2.33;2.00;;;;;18.55;72.17;-19704.09;5023664;27;45464;-80
2022/10/25 07:16:29;;;;;;;;;4.00;1.00;;;;;18.69;71.52;-19707.69;5024914;27;45291;-80
2022/10/25 07:19:02;;;;;;;;;1.00;1.00;;;;;18.70;71.47;-19707.97;5023195;27;45563;-80
2022/10/25 07:21:29;;;;;;;;;0.67;0.67;;;;;18.72;71.22;-19708.38;5007071;27;45377;-80
2022/10/25 07:23:54;;;;;;;;;2.00;2.00;;;;;18.71;71.31;-19708.22;4999263;27;45412;-79
2022/10/25 07:26:26;;;;;;;;;1.33;1.00;;;;;18.58;71.59;-19704.75;4985135;28;45405;-80
2022/10/25 07:28:53;;;;;;;;;1.00;1.00;;;;;18.82;71.27;-19711.03;4985670;28;45617;-80
2022/10/25 07:31:34;;;;;;;;;2.00;2.00;;;;;18.86;71.09;-19711.97;5009836;27;45942;-80
2022/10/25 07:34:02;;;;;;;;;1.00;1.00;;;;;18.68;71.06;-19707.44;4995981;27;45731;-80
2022/10/25 07:36:27;;;;;;;;;2.33;1.00;;;;;18.69;70.99;-19707.56;4984128;28;45555;-80
2022/10/25 07:38:53;;;;;;;;;1.00;1.00;;;;;18.87;70.93;-19712.38;4996909;27;45485;-80
2022/10/25 07:41:19;;;;;;;;;1.00;1.00;;;;;18.90;70.75;-19713.03;5040913;27;45612;-80
2022/10/25 07:43:46;;;;;;;;;1.00;1.00;;;;;18.97;70.80;-19714.91;5004519;27;45508;-82
2022/10/25 07:46:11;;;;;;;;;1.00;1.00;;;;;19.02;71.28;-19716.25;5001399;27;45353;-82
2022/10/25 07:48:36;;;;;;;;;3.33;1.33;;;;;19.04;71.05;-19716.78;4977989;28;45472;-82
2022/10/25 07:51:07;;;;;;;;;4.00;1.00;;;;;19.11;70.48;-19718.53;4978233;27;46125;-84
2022/10/25 07:53:32;;;;;;;;;75.75;57.50;;;;;18.94;70.16;-19714.13;5010555;28;45434;-86
2022/10/25 07:55:58;;;;;;;;;3.33;2.00;;;;;18.96;69.94;-19714.66;5002094;27;45441;-79
2022/10/25 07:58:23;;;;;;;;;1.33;1.00;;;;;19.17;69.96;-19720.25;5059844;27;45811;-81
2022/10/25 08:00:49;;;;;;;;;3.00;1.00;;;;;19.22;70.03;-19721.31;4985926;27;46199;-80
2022/10/25 08:03:16;;;;;;;;;2.00;2.00;;;;;19.21;70.50;-19721.19;4980171;27;45442;-81
2022/10/25 08:05:46;;;;;;;;;1.67;1.33;;;;;19.07;70.26;-19717.59;4974432;27;45657;-80
2022/10/25 08:08:14;;;;;;;;;2.00;1.00;;;;;19.09;69.90;-19718.00;4951486;28;45542;-81
2022/10/25 08:10:42;;;;;;;;;0.50;0.50;;;;;19.34;69.68;-19724.53;4986987;27;45380;-81
2022/10/25 08:13:08;;;;;;;;;4.00;1.00;;;;;19.41;69.88;-19726.41;4975007;28;45369;-80
2022/10/25 08:15:35;;;;;;;;;1.00;1.00;;;;;19.29;69.93;-19723.19;4974733;27;45441;-82
2022/10/25 08:18:01;;;;;;;;;1.67;1.33;;;;;19.46;69.56;-19727.72;4975419;27;45486;-82
2022/10/25 08:20:28;;;;;;;;;2.67;1.00;;;;;19.56;68.91;-19730.41;4953277;27;46705;-83
2022/10/25 08:22:57;;;;;;;;;1.00;1.00;;;;;19.54;68.87;-19729.72;4963409;28;45346;-84
2022/10/25 08:25:23;;;;;;;;;1.00;1.00;;;;;19.56;69.06;-19730.28;4978839;27;45429;-83
2022/10/25 08:27:48;;;;;;;;;2.33;1.00;;;;;19.62;68.15;-19731.88;4969756;28;45663;-83
2022/10/25 08:30:14;;;;;;;;;2.33;1.00;;;;;19.63;68.78;-19732.13;4974916;27;45848;-81
2022/10/25 08:32:40;;;;;;;;;3.00;3.00;;;;;19.68;68.25;-19733.34;4975065;27;45463;-82
2022/10/25 08:35:06;;;;;;;;;2.67;1.00;;;;;19.67;68.31;-19733.19;4974460;27;45521;-82
2022/10/25 08:37:31;;;;;;;;;1.00;1.00;;;;;19.66;67.53;-19732.94;4959061;27;45562;-82
2022/10/25 08:39:57;;;;;;;;;1.00;1.00;;;;;19.96;67.20;-19740.81;4981180;27;46260;-81
2022/10/25 08:42:48;;;;;;;;;2.50;1.50;;;;;19.99;66.68;-19741.47;4979858;27;45406;-80
2022/10/25 08:45:31;;;;;;;;;1.00;1.00;;;;;19.82;66.83;-19737.22;4958962;28;45319;-80
2022/10/25 08:47:59;;;;;;;;;0.00;0.00;;;;;20.00;66.16;-19741.75;4974472;27;45378;-80
2022/10/25 08:50:32;;;;;;;;;1.00;1.00;;;;;19.93;66.63;-19740.00;4974511;27;45706;-81
2022/10/25 08:53:03;;;;;;;;;0.25;0.25;;;;;19.77;65.44;-19735.88;4957061;27;45729;-80
2022/10/25 08:55:35;;;;;;;;;2.00;1.00;;;;;19.63;66.01;-19732.13;4983293;27;45374;-81
2022/10/25 08:58:05;;;;;;;;;4.00;0.67;;;;;20.00;66.55;-19741.75;4990322;27;45464;-81
2022/10/25 09:00:38;;;;;;;;;1.00;1.00;;;;;20.03;65.35;-19742.53;4989671;27;45349;-81
2022/10/25 09:03:04;;;;;;;;;0.25;0.25;;;;;20.11;65.47;-19744.69;4985433;27;45702;-80
2022/10/25 09:06:01;;;;;;;;;2.00;0.00;;;;;20.15;65.05;-19745.75;4994280;27;45557;-80
2022/10/25 09:08:51;;;;;;;;;1.00;1.00;;;;;20.31;64.69;-19749.88;4994506;27;45482;-80
2022/10/25 09:11:29;;;;;;;;;1.00;1.00;;;;;20.49;64.02;-19754.41;4993369;27;46560;-79
2022/10/25 09:14:10;;;;;;;;;0.25;0.25;;;;;20.65;64.01;-19758.81;4993881;27;45544;-79
2022/10/25 09:16:38;;;;;;;;;4.00;0.75;;;;;20.84;62.80;-19763.75;4994006;27;45639;-78
2022/10/25 09:19:15;;;;;;;;;2.50;0.50;;;;;20.89;61.89;-19764.81;4991138;27;45829;-79
2022/10/25 09:21:51;;;;;;;;;0.00;0.00;;;;;21.06;61.17;-19769.34;4984319;27;47187;-78
2022/10/25 09:24:32;;;;;;;;;0.25;0.25;;;;;21.01;60.65;-19768.00;4993600;27;45428;-79
2022/10/25 09:27:10;;;;;;;;;0.00;0.00;;;;;20.97;60.65;-19767.06;4994142;27;45423;-80
2022/10/25 09:29:47;;;;;;;;;0.50;0.00;;;;;21.19;59.35;-19772.81;4976386;28;45987;-79
2022/10/25 09:32:35;;;;;;;;;2.00;0.25;;;;;21.30;58.88;-19775.59;4993534;27;47111;-80
2022/10/25 09:35:04;;;;;;;;;0.00;0.00;;;;;21.17;58.86;-19772.13;4993390;28;45433;-80
2022/10/25 09:37:37;;;;;;;;;2.00;0.00;;;;;21.60;58.73;-19783.44;4976199;28;45484;-78
2022/10/25 09:40:11;;;;;;;;;0.00;0.00;;;;;21.77;58.36;-19787.72;4993841;28;45394;-79
2022/10/25 09:42:41;;;;;;;;;0.00;0.00;;;;;21.96;58.39;-19792.78;4993425;28;46211;-78
2022/10/25 09:45:17;;;;;;;;;0.00;0.00;;;;;22.13;57.04;-19797.16;4993619;27;45441;-78
2022/10/25 09:48:12;;;;;;;;;0.00;0.00;;;;;22.31;56.79;-19801.94;4993373;28;45391;-78
2022/10/25 09:50:59;;;;;;;;;0.00;0.00;;;;;22.44;56.18;-19805.13;4992653;28;45440;-78
2022/10/25 09:53:24;;;;;;;;;3.00;0.00;;;;;22.57;56.09;-19808.59;4993274;27;45476;-81
2022/10/25 09:55:52;;;;;;;;;0.00;0.00;;;;;22.70;56.14;-19812.06;4992282;28;45307;-80
2022/10/25 09:58:25;;;;;;;;;0.75;0.00;;;;;22.78;55.01;-19814.03;4982817;28;45483;-80
2022/10/25 10:00:55;;;;;;;;;0.25;0.25;;;;;22.81;55.61;-19814.72;4959698;28;45667;-81
2022/10/25 10:03:22;;;;;;;;;0.75;0.00;;;;;22.95;54.77;-19818.56;4984094;27;46196;-80
2022/10/25 10:05:56;;;;;;;;;0.50;0.00;;;;;23.09;55.06;-19822.03;4992992;27;45293;-81
2022/10/25 10:08:23;;;;;;;;;0.00;0.00;;;;;23.89;53.67;-19842.88;4993458;28;45414;-80
2022/10/25 10:10:51;;;;;;;;;0.00;0.00;;;;;25.37;51.75;-19881.03;4993379;27;45391;-80
2022/10/25 10:13:27;;;;;;;;;0.00;0.00;;;;;27.12;47.93;-19926.41;4972119;28;45703;-80
2022/10/25 10:16:01;;;;;;;;;0.00;0.00;;;;;28.70;44.59;-19967.03;4976823;28;45422;-80
2022/10/25 10:18:32;;;;;;;;;0.00;0.00;;;;;29.66;42.29;-19991.66;4985048;27;45423;-80
2022/10/25 10:21:02;;;;;;;;;0.25;0.00;;;;;30.28;40.60;-19664.22;5016471;27;45457;-79
2022/10/25 10:24:03;;;;;;;;;2.00;0.00;;;;;30.07;40.16;-17610.91;5040392;27;46294;-79
2022/10/25 10:26:48;;;;;;;;;0.00;0.00;;;;;27.96;42.65;-16543.44;4997541;27;45358;-79
2022/10/25 10:29:35;;;;;;;;;0.00;0.00;;;;;26.84;45.18;-17539.69;4996125;27;45231;-79
2022/10/25 10:32:20;;;;;;;;;0.50;0.50;;;;;25.80;46.60;-18534.09;4996535;27;45477;-79
2022/10/25 10:34:51;;;;;;;;;0.00;0.00;;;;;25.66;47.66;-19208.78;4995941;27;45239;-79
2022/10/25 10:37:21;;;;;;;;;0.00;0.00;;;;;25.97;48.26;-19894.53;4996231;27;45431;-80
2022/10/25 10:39:54;;;;;;;;;1.00;0.00;;;;;26.11;47.88;-19898.38;4978324;28;45464;-80
2022/10/25 10:42:33;;;;;;;;;1.00;0.00;;;;;26.09;47.57;-19897.84;4992778;27;45753;-80
2022/10/25 10:45:18;;;;;;;;;0.00;0.00;;;;;26.16;47.71;-19899.56;5000926;27;46072;-81
2022/10/25 10:47:49;;;;;;;;;4.25;3.75;;;;;26.04;47.42;-19557.44;4975606;27;45425;-81
2022/10/25 10:50:24;;;;;;;;;0.75;0.00;;;;;25.67;47.94;-19547.97;4995823;27;45408;-80
2022/10/25 10:53:16;;;;;;;;;1.00;0.00;;;;;25.28;48.34;-19538.25;4995882;27;45359;-80
2022/10/25 10:55:44;;;;;;;;;0.50;0.00;;;;;26.05;47.87;-19896.78;4995556;27;45532;-81
2022/10/25 10:58:16;;;;;;;;;0.00;0.00;;;;;25.92;46.85;-19554.31;4995418;27;45386;-78
2022/10/25 11:01:01;;;;;;;;;11.00;6.75;;;;;25.27;47.91;-19199.25;4981590;27;45397;-81
2022/10/25 11:03:40;;;;;;;;;2.50;1.00;;;;;25.20;48.53;-19536.16;4986306;27;45440;-77
2022/10/25 11:06:12;;;;;;;;;2.50;0.00;;;;;24.96;48.36;-19529.94;4986107;27;46073;-89
2022/10/25 11:08:38;;;;;;;;;0.00;0.00;;;;;26.88;46.17;-19918.22;4993158;27;45481;-87
2022/10/25 11:11:21;;;;;;;;;0.75;0.75;;;;;30.18;41.98;-19661.78;5005135;27;45395;-87
2022/10/25 11:13:57;;;;;;;;;0.00;0.00;;;;;31.94;38.18;-16624.34;4998894;27;45400;-81
2022/10/25 11:16:28;;;;;;;;;2.75;1.00;;;;;33.25;35.70;-12185.91;4978593;28;45949;-80
2022/10/25 11:19:18;;;;;;;;;0.00;0.00;;;;;34.22;34.40;-7032.81;4983405;27;46209;-75
2022/10/25 11:21:50;;;;;;;;;0.00;0.00;;;;;34.21;33.92;-1169.59;4991529;27;45425;-76
2022/10/25 11:24:28;;;;;;;;;0.00;0.00;;;;;33.96;33.87;1935.78;4997561;27;45566;-75
2022/10/25 11:27:15;;;;;;;;;0.00;0.00;;;;;33.37;34.42;5036.59;4990760;27;47378;-75
2022/10/25 11:29:59;;;;;;;;;0.25;0.00;;;;;32.47;35.78;6403.47;4978106;27;45408;-75
2022/10/25 11:32:34;;;;;;;;;0.25;0.00;;;;;31.63;36.83;7423.56;4975961;27;45328;-77
2022/10/25 11:35:01;;;;;;;;;0.00;0.00;;;;;30.94;37.91;6379.22;5001774;27;45308;-76
2022/10/25 11:37:44;;;;;;;;;0.50;0.50;;;;;30.47;39.24;3278.88;4997622;27;45501;-77
2022/10/25 11:40:21;;;;;;;;;1.00;0.00;;;;;30.00;39.54;2930.47;4988991;27;45271;-78